Time;durP1;ratioP1;P1;durP2;ratioP2;P2;SDS_P1;SDS_P2;PMS_P1;PMS_P2;Temp;Humidity;BMP_temperature;BMP_pressure;BME280_temperature;BME280_humidity;BME280_pressure;Samples;Min_cycle;Max_cycle;Signal;HPM_P1;HPM_P2
2023/01/08 07:34:46;;;;;;;0.30;0.30;;;8.30;99.90;8.90;99789.00;;;;5079463;22;20358;-70
2023/01/08 07:37:54;;;;;;;0.30;0.30;;;8.30;99.90;8.70;99793.00;;;;5038379;28;20199;-70
2023/01/08 07:41:00;;;;;;;0.30;0.30;;;8.30;99.90;8.70;99787.00;;;;5056401;28;20205;-70
2023/01/08 07:43:54;;;;;;;0.57;0.57;;;8.30;99.90;8.80;99794.00;;;;5056350;28;20664;-69
2023/01/08 07:46:44;;;;;;;0.30;0.30;;;8.30;99.90;9.00;99717.00;;;;4975509;28;20674;-69
2023/01/08 07:49:42;;;;;;;0.30;0.30;;;8.30;99.90;9.10;99777.00;;;;5059578;28;20653;-69
2023/01/08 07:52:35;;;;;;;0.57;0.57;;;8.40;99.90;8.20;99781.00;;;;5056909;28;20216;-69
2023/01/08 07:55:42;;;;;;;1.07;0.50;;;8.20;99.90;8.80;99762.00;;;;5062259;28;20208;-70
2023/01/08 07:58:51;;;;;;;3.00;0.50;;;8.20;99.90;8.70;99690.00;;;;5069244;28;20672;-69
2023/01/08 08:01:52;;;;;;;0.40;0.40;;;8.30;99.90;8.70;99750.00;;;;5058705;28;20191;-69
2023/01/08 08:04:59;;;;;;;0.30;0.30;;;8.30;99.90;9.10;99770.00;;;;5055231;28;20203;-69
2023/01/08 08:08:02;;;;;;;1.27;1.17;;;8.40;99.90;8.60;99769.00;;;;5054597;28;20199;-69
2023/01/08 08:10:56;;;;;;;0.30;0.30;;;8.30;99.90;9.20;99707.00;;;;5072575;28;20204;-69
2023/01/08 08:14:10;;;;;;;0.47;0.47;;;8.40;99.90;9.10;99770.00;;;;5047532;28;20203;-69
2023/01/08 08:17:02;;;;;;;1.50;1.40;;;8.40;99.90;8.70;99770.00;;;;5057751;28;20601;-69
2023/01/08 08:19:56;;;;;;;1.23;0.90;;;8.30;99.90;8.70;99761.00;;;;5045414;28;20203;-69
2023/01/08 08:22:24;;;;;;;0.50;0.50;;;8.20;99.90;8.70;99756.00;;;;5049681;28;20673;-70
2023/01/08 08:25:14;;;;;;;0.30;0.30;;;8.30;99.90;8.70;99764.00;;;;5054527;28;20193;-70
2023/01/08 08:27:53;;;;;;;0.30;0.30;;;8.30;99.90;8.50;99749.00;;;;5046472;28;20716;-69
2023/01/08 08:30:21;;;;;;;1.77;0.80;;;8.20;99.90;8.60;99772.00;;;;5048358;28;20259;-69
2023/01/08 08:33:03;;;;;;;0.40;0.40;;;8.20;99.90;8.50;99758.00;;;;5055198;28;20761;-69
2023/01/08 08:35:52;;;;;;;5.50;0.50;;;8.10;99.90;8.70;99747.00;;;;5056683;28;20206;-69
2023/01/08 08:38:38;;;;;;;0.43;0.43;;;8.20;99.90;8.80;99754.00;;;;5070395;28;20185;-70
2023/01/08 08:41:26;;;;;;;0.30;0.30;;;8.20;99.90;8.50;99721.00;;;;5057059;28;20192;-69
2023/01/08 08:44:17;;;;;;;0.20;0.20;;;8.10;99.90;8.90;99699.00;;;;5052360;28;20667;-69
2023/01/08 08:47:08;;;;;;;0.43;0.43;;;8.20;99.90;8.70;99745.00;;;;5047870;28;20244;-69
2023/01/08 08:50:29;;;;;;;0.30;0.30;;;8.30;99.90;9.10;99741.00;;;;5061107;28;20186;-69
2023/01/08 08:53:42;;;;;;;0.30;0.30;;;8.30;99.90;9.00;99745.00;;;;5032191;28;20743;-70
2023/01/08 08:56:33;;;;;;;0.30;0.30;;;8.40;99.90;9.00;99718.00;;;;5053490;28;20196;-69
2023/01/08 08:59:22;;;;;;;1.60;0.50;;;8.30;99.90;8.70;99738.00;;;;5060661;28;20196;-71
2023/01/08 09:02:06;;;;;;;0.97;0.40;;;8.40;99.90;9.30;99744.00;;;;5047732;28;20252;-69
2023/01/08 09:04:57;;;;;;;0.20;0.20;;;8.60;99.90;9.20;99726.00;;;;5049514;28;20655;-69
2023/01/08 09:08:03;;;;;;;0.27;0.27;;;8.60;99.90;9.30;99731.00;;;;5052880;28;20187;-69
2023/01/08 09:10:54;;;;;;;0.30;0.30;;;8.70;99.90;9.20;99734.00;;;;5067984;28;20194;-69
2023/01/08 09:13:47;;;;;;;0.30;0.30;;;8.70;99.90;9.00;99739.00;;;;5033042;28;20616;-70
2023/01/08 09:16:35;;;;;;;5.20;0.73;;;8.70;99.90;9.20;99703.00;;;;5048577;28;20293;-68
2023/01/08 09:19:23;;;;;;;0.30;0.30;;;8.70;99.90;9.20;99707.00;;;;5059471;28;20268;-68
2023/01/08 09:22:14;;;;;;;0.27;0.27;;;8.80;99.90;9.60;99715.00;;;;5063492;28;20207;-69
2023/01/08 09:25:23;;;;;;;2.23;1.23;;;9.00;99.90;9.40;99716.00;;;;5061294;28;20195;-69
2023/01/08 09:28:45;;;;;;;1.17;0.43;;;9.10;99.90;9.40;99717.00;;;;5042860;28;20193;-69
2023/01/08 09:31:33;;;;;;;0.20;0.20;;;9.00;99.90;9.90;99714.00;;;;5061607;28;20188;-69
2023/01/08 09:41:46;;;;;;;0.30;0.30;;;9.40;99.90;10.40;99719.00;;;;4991646;28;20303;-69
2023/01/08 09:44:44;;;;;;;3.97;1.23;;;9.50;99.90;9.90;99717.00;;;;4967854;28;20202;-69
2023/01/08 09:47:58;;;;;;;0.53;0.53;;;9.60;99.90;10.20;99723.00;;;;5051591;28;20207;-70
2023/01/08 09:51:04;;;;;;;0.30;0.30;;;9.60;99.90;9.70;99627.00;;;;5067580;28;20199;-69
2023/01/08 09:53:57;;;;;;;0.30;0.30;;;9.50;99.90;10.50;99701.00;;;;5056508;28;20228;-70
2023/01/08 09:57:03;;;;;;;0.20;0.20;;;9.70;99.90;10.30;99702.00;;;;5049892;28;20198;-70
2023/01/08 10:00:30;;;;;;;1.10;0.70;;;9.80;99.90;10.50;99715.00;;;;5052577;28;20268;-70
2023/01/08 10:03:40;;;;;;;0.20;0.20;;;9.80;99.90;10.90;99717.00;;;;5058070;28;20210;-70
2023/01/08 10:06:18;;;;;;;0.20;0.20;;;10.10;99.90;10.90;99701.00;;;;5070551;28;20561;-69
2023/01/08 10:09:01;;;;;;;0.20;0.20;;;10.30;99.90;10.40;99708.00;;;;5053014;28;20209;-69
2023/01/08 10:11:45;;;;;;;0.20;0.20;;;10.10;99.90;10.10;99713.00;;;;5062825;28;20287;-69
2023/01/08 10:14:52;;;;;;;0.20;0.20;;;10.00;99.90;10.10;99702.00;;;;5020949;28;20197;-71
2023/01/08 10:17:42;;;;;;;1.67;0.87;;;9.90;99.90;10.50;99717.00;;;;5055151;28;20200;-69
2023/01/08 10:20:31;;;;;;;0.20;0.20;;;10.10;99.90;10.00;99718.00;;;;5070000;28;20285;-69
2023/01/08 10:34:07;;;;;;;0.13;0.13;;;10.10;99.90;10.50;99692.00;;;;5110896;27;20603;-69
2023/01/08 10:36:52;;;;;;;0.23;0.23;;;10.20;99.90;11.40;99695.00;;;;5089117;28;20186;-70
2023/01/08 10:39:46;;;;;;;0.63;0.63;;;10.50;99.90;11.00;99684.00;;;;5089489;28;20187;-69
2023/01/08 10:42:16;;;;;;;0.17;0.17;;;10.60;99.90;10.80;99690.00;;;;5113608;28;20181;-70
2023/01/08 10:45:21;;;;;;;0.20;0.20;;;10.50;99.90;11.80;99711.00;;;;5122737;28;20196;-74
2023/01/08 10:47:58;;;;;;;1.03;0.57;;;10.70;99.90;10.60;99694.00;;;;5088624;28;20180;-75
2023/01/08 10:50:33;;;;;;;0.77;0.77;;;10.50;99.90;11.40;99713.00;;;;5105873;28;20197;-74
2023/01/08 10:53:25;;;;;;;0.23;0.23;;;10.70;99.90;11.10;99698.00;;;;5088617;28;20296;-71
2023/01/08 10:56:06;;;;;;;1.10;0.73;;;10.60;99.90;10.80;99680.00;;;;5082807;28;20206;-76
2023/01/08 10:58:47;;;;;;;9.13;0.93;;;10.40;99.90;10.30;99686.00;;;;5121823;28;20197;-72
2023/01/08 11:01:23;;;;;;;1.50;0.60;;;10.20;99.90;11.00;99690.00;;;;5090045;28;20640;-67
2023/01/08 11:04:31;;;;;;;0.20;0.20;;;10.30;99.90;11.90;99689.00;;;;5088477;28;21448;-72
2023/01/08 11:07:19;;;;;;;0.23;0.23;;;10.80;99.90;11.40;99625.00;;;;5105511;28;20190;-67
2023/01/08 11:10:15;;;;;;;0.30;0.30;;;10.70;99.90;11.70;99693.00;;;;5089116;28;20707;-68
2023/01/08 11:13:18;;;;;;;0.20;0.20;;;10.90;99.90;12.20;99645.00;;;;5109099;28;20236;-68
2023/01/08 11:16:11;;;;;;;0.10;0.10;;;11.10;99.90;12.70;99730.00;;;;5102023;28;20198;-68
2023/01/08 11:19:28;;;;;;;0.20;0.20;;;11.60;99.90;12.00;99726.00;;;;5083125;28;20190;-68
2023/01/08 11:22:20;;;;;;;0.20;0.20;;;11.50;99.90;12.50;99697.00;;;;5089697;28;20194;-67
2023/01/08 11:25:03;;;;;;;0.67;0.67;;;11.30;99.90;12.90;99729.00;;;;5087432;28;20187;-68
2023/01/08 11:28:01;;;;;;;0.10;0.10;;;11.70;99.90;13.70;99733.00;;;;5105269;28;20192;-68
2023/01/08 11:30:33;;;;;;;0.10;0.10;;;11.90;99.90;12.50;99708.00;;;;5068045;28;20207;-68
2023/01/08 11:33:29;;;;;;;0.10;0.10;;;11.70;99.90;11.70;99704.00;;;;5087875;28;20285;-68
2023/01/08 11:36:33;;;;;;;0.10;0.10;;;11.40;99.90;11.30;99701.00;;;;5087467;28;20183;-66
2023/01/08 11:39:08;;;;;;;0.30;0.20;;;11.00;99.90;11.20;99611.00;;;;5099823;28;20194;-67
2023/01/08 11:42:07;;;;;;;0.10;0.10;;;10.70;99.90;11.70;99680.00;;;;5079613;28;20644;-67
2023/01/08 11:45:16;;;;;;;0.37;0.37;;;10.80;99.90;10.80;99588.00;;;;5076011;28;20195;-66
2023/01/08 11:48:16;;;;;;;1.03;0.30;;;10.60;99.90;11.30;99663.00;;;;5033749;28;20222;-66
2023/01/08 11:51:19;;;;;;;0.20;0.20;;;10.80;99.90;11.80;99656.00;;;;5019786;28;20200;-66
2023/01/08 11:54:19;;;;;;;0.27;0.27;;;10.90;99.90;12.70;99667.00;;;;5079552;28;20634;-66
2023/01/08 11:57:53;;;;;;;0.17;0.17;;;11.40;99.90;12.50;99660.00;;;;5073468;28;20224;-67
2023/01/08 12:01:23;;;;;;;0.20;0.20;;;11.50;99.90;11.40;99662.00;;;;5053031;28;20217;-67
2023/01/08 12:04:32;;;;;;;0.10;0.10;;;11.00;99.90;12.00;99678.00;;;;4994039;28;20224;-67
2023/01/08 12:07:25;;;;;;;0.30;0.30;;;11.10;99.90;11.20;99652.00;;;;4970469;28;20194;-67
2023/01/08 12:10:25;;;;;;;6.00;0.90;;;10.70;99.90;11.30;99649.00;;;;4993216;28;20183;-67
2023/01/08 12:13:50;;;;;;;0.40;0.40;;;10.70;99.90;11.10;99640.00;;;;4954466;29;20237;-68
2023/01/08 12:16:47;;;;;;;0.60;0.60;;;10.70;99.90;10.90;99643.00;;;;4977134;28;20189;-68
2023/01/08 12:19:54;;;;;;;5.30;0.40;;;10.70;99.90;11.70;99635.00;;;;5033011;28;20196;-67
2023/01/08 12:22:51;;;;;;;0.10;0.10;;;10.90;99.90;12.00;99645.00;;;;4997604;28;20196;-67
2023/01/08 12:25:42;;;;;;;0.30;0.30;;;11.00;99.90;11.70;99642.00;;;;5016047;28;20196;-68
2023/01/08 12:28:54;;;;;;;0.20;0.20;;;11.10;99.90;11.70;99632.00;;;;5049069;28;20204;-68
2023/01/08 12:31:44;;;;;;;0.20;0.20;;;10.80;99.90;11.80;99625.00;;;;5012929;28;20208;-68
2023/01/08 12:34:35;;;;;;;0.77;0.47;;;10.90;99.90;11.50;99624.00;;;;5032986;28;20187;-67
2023/01/08 12:37:51;;;;;;;0.20;0.20;;;10.90;99.90;11.40;99592.00;;;;5026511;28;20264;-68
2023/01/08 12:41:01;;;;;;;2.90;0.23;;;11.00;99.90;11.70;99631.00;;;;5060197;28;20187;-68
2023/01/08 12:43:55;;;;;;;0.40;0.40;;;10.80;99.90;11.40;99627.00;;;;5070056;28;20237;-68
2023/01/08 12:46:51;;;;;;;0.20;0.20;;;10.80;99.90;11.50;99625.00;;;;5071598;28;20204;-68
2023/01/08 12:50:40;;;;;;;0.30;0.30;;;10.70;99.90;11.20;99620.00;;;;5102771;28;20186;-67
2023/01/08 12:53:36;;;;;;;2.00;0.73;;;10.60;99.90;11.80;99629.00;;;;5012777;28;20293;-68
2023/01/08 12:59:44;;;;;;;0.20;0.20;;;10.70;99.90;11.60;99620.00;;;;5012049;28;20200;-68
2023/01/08 13:02:50;;;;;;;0.47;0.47;;;10.90;99.90;11.60;99607.00;;;;5070008;28;20205;-68
2023/01/08 13:05:25;;;;;;;0.40;0.40;;;10.90;99.90;12.10;99623.00;;;;5067555;28;20192;-68
2023/01/08 13:08:37;;;;;;;0.10;0.10;;;11.00;99.90;11.80;99621.00;;;;5072639;28;20186;-68
2023/01/08 13:11:48;;;;;;;0.97;0.60;;;10.90;99.90;11.20;99611.00;;;;5067871;28;20319;-68
2023/01/08 13:14:43;;;;;;;0.20;0.20;;;10.70;99.90;11.70;99611.00;;;;5078698;28;20206;-68
2023/01/08 13:17:32;;;;;;;0.23;0.23;;;10.80;99.90;11.30;99619.00;;;;5099266;28;20190;-68
2023/01/08 13:20:42;;;;;;;2.33;1.13;;;10.80;99.90;11.40;99578.00;;;;5070419;28;20326;-68
2023/01/08 13:23:33;;;;;;;0.20;0.20;;;10.70;99.90;11.40;99611.00;;;;5036849;28;20211;-68
2023/01/08 13:26:30;;;;;;;1.83;0.30;;;10.80;99.90;11.20;99600.00;;;;5072601;28;20506;-69
2023/01/08 13:29:40;;;;;;;0.20;0.20;;;10.60;99.90;11.90;99590.00;;;;5072017;28;20188;-68
2023/01/08 13:32:46;;;;;;;0.20;0.20;;;10.80;99.90;12.50;99522.00;;;;5060087;28;20217;-68
2023/01/08 13:38:07;;;;;;;2.47;1.13;;;11.20;99.90;11.90;99587.00;;;;5065805;28;20821;-68
2023/01/08 13:40:47;;;;;;;0.13;0.13;;;11.00;99.90;12.30;99589.00;;;;5073413;28;20209;-68
2023/01/08 13:43:43;;;;;;;0.10;0.10;;;11.10;99.90;11.90;99580.00;;;;5065820;28;20597;-69
2023/01/08 13:46:25;;;;;;;1.90;0.30;;;11.00;99.90;11.20;99575.00;;;;5074410;28;20195;-69
2023/01/08 13:49:48;;;;;;;0.20;0.20;;;10.80;99.90;11.50;99560.00;;;;5088610;28;20674;-68
2023/01/08 13:52:55;;;;;;;0.83;0.80;;;10.80;99.90;10.90;99472.00;;;;5064416;28;20247;-69
2023/01/08 13:56:02;;;;;;;4.13;0.97;;;10.60;99.90;11.20;99526.00;;;;5064798;28;20181;-68
2023/01/08 13:58:52;;;;;;;0.23;0.23;;;10.60;99.90;11.70;99540.00;;;;5071567;28;20201;-69
2023/01/08 14:01:26;;;;;;;0.30;0.30;;;10.70;99.90;11.60;99525.00;;;;5074949;28;20205;-69
2023/01/08 14:04:24;;;;;;;0.20;0.20;;;10.70;99.90;11.40;99528.00;;;;5087812;28;20272;-67
2023/01/08 14:07:13;;;;;;;0.57;0.30;;;10.70;99.90;10.90;99501.00;;;;5066034;28;20190;-75
2023/01/08 14:09:41;;;;;;;0.20;0.20;;;10.60;99.90;11.80;99505.00;;;;5054172;28;20186;-71
2023/01/08 14:12:48;;;;;;;0.30;0.30;;;10.60;99.90;12.10;99433.00;;;;5069592;28;20300;-70
2023/01/08 14:15:47;;;;;;;0.20;0.20;;;10.80;99.90;12.40;99528.00;;;;5061601;28;20174;-70
2023/01/08 14:18:49;;;;;;;0.40;0.40;;;11.00;99.90;11.50;99498.00;;;;5071977;28;20186;-70
2023/01/08 14:21:23;;;;;;;0.20;0.20;;;10.80;99.90;11.80;99475.00;;;;5066585;28;20633;-70
2023/01/08 14:24:33;;;;;;;0.30;0.30;;;10.90;99.90;11.80;99481.00;;;;5071583;28;20193;-70
2023/01/08 14:27:28;;;;;;;0.20;0.20;;;10.80;99.90;11.20;99486.00;;;;5088889;28;20664;-70
2023/01/08 14:29:55;;;;;;;0.20;0.20;;;10.70;99.90;11.60;99468.00;;;;5095527;28;20189;-70
2023/01/08 14:32:35;;;;;;;1.50;1.00;;;10.70;99.90;11.40;99485.00;;;;5067802;28;20279;-70
2023/01/08 14:39:30;;;;;;;0.97;0.97;;;10.70;99.90;11.50;99465.00;;;;5036145;28;20549;-70
2023/01/08 14:45:23;;;;;;;0.20;0.20;;;10.60;99.90;11.60;99451.00;;;;5072521;28;20255;-70
2023/01/08 14:48:24;;;;;;;0.30;0.30;;;10.60;99.90;11.50;99451.00;;;;5024770;28;20197;-70
2023/01/08 14:51:51;;;;;;;0.20;0.20;;;10.50;99.90;11.30;99452.00;;;;5100929;28;20264;-70
2023/01/08 14:54:30;;;;;;;0.27;0.27;;;10.60;99.90;11.40;99381.00;;;;5082118;28;20188;-70
2023/01/08 14:57:20;;;;;;;0.50;0.50;;;10.60;99.90;10.80;99443.00;;;;5088438;28;20235;-70
2023/01/08 15:00:53;;;;;;;0.30;0.30;;;10.40;99.90;10.80;99451.00;;;;5066905;28;20281;-70
2023/01/08 15:03:48;;;;;;;0.50;0.50;;;10.40;99.90;11.20;99462.00;;;;5051459;28;20675;-70
2023/01/08 15:07:10;;;;;;;3.10;0.80;;;10.40;99.90;11.10;99458.00;;;;5071352;28;20178;-70
2023/01/08 15:10:40;;;;;;;0.73;0.73;;;10.50;99.90;11.20;99435.00;;;;5070861;28;20187;-70
2023/01/08 15:13:50;;;;;;;0.20;0.20;;;10.50;99.90;11.20;99446.00;;;;5094009;28;20204;-70
2023/01/08 15:16:38;;;;;;;0.47;0.30;;;10.50;99.90;11.20;99405.00;;;;5064787;28;20175;-70
2023/01/08 15:19:29;;;;;;;0.20;0.20;;;10.50;99.90;11.20;99426.00;;;;5074591;28;20251;-70
2023/01/08 15:22:24;;;;;;;1.40;0.50;;;10.50;99.90;11.10;99433.00;;;;5074615;28;20226;-70
2023/01/08 15:25:17;;;;;;;0.20;0.20;;;10.50;99.90;11.20;99422.00;;;;5108683;28;20672;-70
2023/01/08 15:28:12;;;;;;;1.50;0.60;;;10.50;99.90;11.10;99417.00;;;;5001335;28;20207;-70
2023/01/08 15:30:55;;;;;;;1.53;0.40;;;10.50;99.90;11.10;99400.00;;;;5027179;28;20681;-70
2023/01/08 15:34:02;;;;;;;0.63;0.63;;;10.40;99.90;11.20;99421.00;;;;5048730;28;20232;-70
2023/01/08 15:37:15;;;;;;;3.30;1.67;;;10.60;99.90;11.00;99414.00;;;;5091948;28;20277;-70
2023/01/08 15:40:04;;;;;;;0.63;0.50;;;10.40;99.90;11.10;99408.00;;;;5073927;28;20226;-70
2023/01/08 15:43:10;;;;;;;0.20;0.20;;;10.40;99.90;11.40;99394.00;;;;5091244;28;20178;-71
2023/01/08 15:46:19;;;;;;;2.10;0.70;;;10.50;99.90;11.00;99406.00;;;;5072431;28;20197;-71
2023/01/08 15:49:26;;;;;;;0.60;0.50;;;10.50;99.90;11.10;99373.00;;;;5090736;28;20186;-71
2023/01/08 15:52:41;;;;;;;1.57;1.53;;;10.40;99.90;11.50;99395.00;;;;5049682;28;20224;-70
2023/01/08 15:55:24;;;;;;;0.20;0.20;;;10.50;99.90;11.20;99329.00;;;;5070451;28;20182;-70
2023/01/08 15:58:22;;;;;;;1.93;1.37;;;10.50;99.90;11.20;99326.00;;;;5082115;28;20185;-70
2023/01/08 16:01:32;;;;;;;0.27;0.27;;;10.50;99.90;11.10;99405.00;;;;5066689;28;20579;-70
2023/01/08 16:05:23;;;;;;;0.20;0.20;;;10.50;99.90;10.80;99337.00;;;;5067273;28;20668;-70
2023/01/08 16:08:36;;;;;;;0.40;0.40;;;10.40;99.90;11.10;99381.00;;;;5014979;28;20216;-70
2023/01/08 16:11:07;;;;;;;0.67;0.67;;;10.40;99.90;10.90;99383.00;;;;5018481;28;20199;-70
2023/01/08 16:14:22;;;;;;;0.33;0.23;;;10.40;99.90;11.00;99376.00;;;;5003371;28;20212;-70
2023/01/08 16:17:13;;;;;;;0.77;0.40;;;10.40;99.90;11.10;99373.00;;;;5006773;28;20666;-70
2023/01/08 16:20:22;;;;;;;0.67;0.67;;;10.40;99.90;11.30;99357.00;;;;5002659;28;20190;-70
2023/01/08 16:23:08;;;;;;;0.23;0.23;;;10.50;99.90;11.70;99376.00;;;;5027461;28;20194;-69
2023/01/08 16:25:57;;;;;;;2.10;0.60;;;10.60;99.90;11.20;99370.00;;;;5045836;28;20189;-71
2023/01/08 16:28:34;;;;;;;0.20;0.20;;;10.50;99.90;11.10;99368.00;;;;5073861;28;20647;-67
2023/01/08 16:31:32;;;;;;;0.83;0.50;;;10.40;99.90;11.10;99367.00;;;;5072387;28;20534;-67
2023/01/08 16:34:20;;;;;;;2.23;1.80;;;10.40;99.90;11.00;99350.00;;;;5073439;28;20539;-67
2023/01/08 16:37:02;;;;;;;1.00;0.60;;;10.40;99.90;11.40;99279.00;;;;5073676;28;20187;-68
2023/01/08 16:40:29;;;;;;;0.57;0.40;;;10.40;99.90;11.10;99342.00;;;;5065932;28;20195;-69
2023/01/08 16:43:24;;;;;;;0.50;0.50;;;10.40;99.90;11.10;99274.00;;;;5066308;28;20212;-69
2023/01/08 16:46:17;;;;;;;0.40;0.40;;;10.40;99.90;11.10;99321.00;;;;5068199;28;20193;-69
2023/01/08 16:48:47;;;;;;;1.43;0.37;;;10.40;99.90;11.10;99307.00;;;;5097981;28;20208;-69
2023/01/08 16:51:16;;;;;;;2.70;0.90;;;10.40;99.90;10.80;99266.00;;;;5071982;28;20215;-69
2023/01/08 16:53:42;;;;;;;0.60;0.40;;;10.30;99.90;11.10;99237.00;;;;5070079;28;20237;-69
2023/01/08 16:56:31;;;;;;;1.13;0.40;;;10.30;99.90;10.80;99307.00;;;;5071617;28;20223;-69
2023/01/08 16:59:20;;;;;;;0.47;0.47;;;10.30;99.90;10.90;99310.00;;;;5074151;28;20684;-69
2023/01/08 17:01:55;;;;;;;0.23;0.23;;;10.30;99.90;10.90;99305.00;;;;5062700;28;20187;-69
2023/01/08 17:04:39;;;;;;;0.63;0.63;;;10.20;99.90;10.90;99288.00;;;;5072390;28;20188;-69
2023/01/08 17:07:30;;;;;;;1.03;0.47;;;10.20;99.90;10.80;99287.00;;;;5067579;28;20261;-69
2023/01/08 17:10:07;;;;;;;2.30;1.23;;;10.10;99.90;10.60;99289.00;;;;5067886;28;20220;-69
2023/01/08 17:12:58;;;;;;;0.20;0.20;;;10.10;99.90;10.90;99283.00;;;;5062353;28;20234;-69
2023/01/08 17:15:25;;;;;;;1.27;0.63;;;10.20;99.90;10.60;99259.00;;;;5060193;28;20197;-69
2023/01/08 17:17:54;;;;;;;0.43;0.40;;;10.10;99.90;10.70;99260.00;;;;5088594;28;20190;-69
2023/01/08 17:20:43;;;;;;;0.50;0.50;;;10.20;99.90;11.20;99260.00;;;;5073096;28;20286;-69
2023/01/08 17:23:30;;;;;;;0.50;0.50;;;10.20;99.90;11.00;99259.00;;;;5071170;28;20204;-69
2023/01/08 17:26:16;;;;;;;3.60;1.10;;;10.30;99.90;11.00;99266.00;;;;5079253;28;20197;-69
2023/01/08 17:28:43;;;;;;;8.30;2.83;;;10.30;99.90;10.90;99253.00;;;;5067464;28;20195;-69
2023/01/08 17:31:13;;;;;;;0.53;0.40;;;10.20;99.90;10.90;99252.00;;;;5072487;28;20184;-69
2023/01/08 17:33:59;;;;;;;0.30;0.30;;;10.20;99.90;10.80;99235.00;;;;5105734;28;20292;-69
2023/01/08 17:36:35;;;;;;;0.43;0.43;;;10.10;99.90;11.10;99216.00;;;;5073379;28;20196;-69
2023/01/08 17:39:02;;;;;;;0.83;0.70;;;10.20;99.90;10.80;99220.00;;;;5069451;28;20207;-69
2023/01/08 17:44:34;;;;;;;0.37;0.30;;;10.20;99.90;10.80;99222.00;;;;5071761;28;20212;-69
2023/01/08 17:47:10;;;;;;;0.20;0.20;;;10.20;99.90;10.80;99222.00;;;;5066129;28;20184;-69
2023/01/08 17:49:39;;;;;;;0.20;0.20;;;10.20;99.90;11.10;99210.00;;;;5049677;28;20219;-69
2023/01/08 17:52:09;;;;;;;0.30;0.30;;;10.20;99.90;10.70;99218.00;;;;5070304;28;20321;-69
2023/01/08 17:54:38;;;;;;;0.30;0.30;;;10.20;99.90;10.80;99207.00;;;;5071381;28;20657;-69
2023/01/08 17:57:09;;;;;;;0.20;0.20;;;10.20;99.90;10.80;99210.00;;;;5071872;28;20185;-69
2023/01/08 17:59:55;;;;;;;0.30;0.30;;;10.20;99.90;11.00;99199.00;;;;5071703;28;20182;-69
2023/01/08 18:02:21;;;;;;;0.23;0.23;;;10.30;99.90;11.20;99200.00;;;;5078067;28;20203;-69
2023/01/08 18:04:50;;;;;;;11.43;1.13;;;10.30;99.90;11.30;99210.00;;;;5072477;28;20191;-69
2023/01/08 18:07:48;;;;;;;6.03;1.23;;;10.40;99.90;11.70;99213.00;;;;5077893;28;20193;-69
2023/01/08 18:10:41;;;;;;;0.37;0.37;;;10.50;99.90;11.30;99198.00;;;;5072222;28;20203;-69
2023/01/08 18:13:28;;;;;;;0.20;0.20;;;10.50;99.90;11.40;99217.00;;;;5102266;28;20696;-69
2023/01/08 18:16:14;;;;;;;0.20;0.20;;;10.50;99.90;11.30;99197.00;;;;5071549;28;20189;-69
2023/01/08 18:18:40;;;;;;;1.50;0.30;;;10.50;99.90;11.70;99219.00;;;;5062616;28;20616;-69
2023/01/08 18:21:29;;;;;;;0.40;0.40;;;10.60;99.90;11.20;99202.00;;;;5071878;28;20197;-69
2023/01/08 18:24:10;;;;;;;0.33;0.33;;;10.50;99.90;11.40;99182.00;;;;5062295;28;20194;-69
2023/01/08 18:26:42;;;;;;;0.70;0.70;;;10.50;99.90;11.00;99202.00;;;;5058364;28;20213;-69
2023/01/08 18:29:13;;;;;;;0.30;0.30;;;10.40;99.90;11.00;99182.00;;;;5087763;28;20641;-69
2023/01/08 18:31:40;;;;;;;0.40;0.40;;;10.30;99.90;10.90;99201.00;;;;5105952;28;20207;-69
2023/01/08 18:34:26;;;;;;;1.03;0.40;;;10.40;99.90;10.70;99191.00;;;;5071803;28;20217;-69
2023/01/08 18:37:04;;;;;;;1.23;0.40;;;10.20;99.90;11.00;99195.00;;;;5088172;28;20194;-69
2023/01/08 18:39:50;;;;;;;0.40;0.40;;;10.30;99.90;11.00;99112.00;;;;5070915;28;20580;-69
2023/01/08 18:42:50;;;;;;;0.50;0.47;;;10.30;99.90;10.70;99174.00;;;;5087796;28;20226;-69
2023/01/08 18:45:25;;;;;;;0.30;0.30;;;10.20;99.90;10.90;99176.00;;;;5069414;28;20272;-69
2023/01/08 18:48:14;;;;;;;0.27;0.27;;;10.10;99.90;11.10;99186.00;;;;5071472;28;20189;-69
2023/01/08 18:50:46;;;;;;;0.87;0.87;;;10.20;99.90;10.90;99183.00;;;;5065563;28;20195;-68
2023/01/08 18:53:22;;;;;;;0.23;0.23;;;10.20;99.90;10.90;99168.00;;;;5068943;28;20198;-68
2023/01/08 18:55:51;;;;;;;0.20;0.20;;;10.20;99.90;10.80;99167.00;;;;5072740;28;20178;-68
2023/01/08 18:59:21;;;;;;;0.30;0.30;;;10.20;99.90;10.40;99152.00;;;;5071960;28;20202;-68
2023/01/08 19:02:26;;;;;;;0.97;0.87;;;10.10;99.90;10.60;99145.00;;;;5064423;28;20208;-68
2023/01/08 19:05:02;;;;;;;0.30;0.30;;;10.10;99.90;10.70;99147.00;;;;5066294;28;20186;-68
2023/01/08 19:08:05;;;;;;;0.40;0.40;;;10.00;99.90;10.60;99101.00;;;;5089790;28;20191;-68
2023/01/08 19:11:10;;;;;;;0.47;0.47;;;10.00;99.90;10.20;99129.00;;;;5060865;28;20292;-68
2023/01/08 19:14:13;;;;;;;0.30;0.30;;;9.80;99.90;10.30;99125.00;;;;5083388;28;20204;-69
2023/01/08 19:16:50;;;;;;;0.37;0.37;;;9.80;99.90;10.30;99029.00;;;;5071964;28;20315;-68
2023/01/08 19:19:48;;;;;;;0.20;0.20;;;9.80;99.90;10.70;99114.00;;;;5073680;28;20574;-68
2023/01/08 19:22:26;;;;;;;0.43;0.37;;;9.80;99.90;10.20;99042.00;;;;5076554;28;20185;-68
2023/01/08 19:24:58;;;;;;;0.20;0.20;;;9.70;99.90;10.20;99106.00;;;;5074644;28;20195;-68
2023/01/08 19:27:32;;;;;;;2.40;0.80;;;9.60;99.90;10.20;99099.00;;;;5091228;28;20264;-68
2023/01/08 19:30:05;;;;;;;0.20;0.20;;;9.60;99.90;10.20;99089.00;;;;5075026;28;20188;-68
2023/01/08 19:33:20;;;;;;;0.30;0.30;;;9.60;99.90;10.10;99081.00;;;;5076102;28;20215;-69
2023/01/08 19:36:44;;;;;;;0.47;0.47;;;9.60;99.90;10.20;99022.00;;;;5058177;28;20196;-69
2023/01/08 19:39:37;;;;;;;1.03;0.47;;;9.60;99.90;10.00;99071.00;;;;5070887;28;20190;-68
2023/01/08 19:45:48;;;;;;;0.43;0.43;;;9.60;99.90;10.40;99062.00;;;;5075700;28;20255;-68
2023/01/08 19:48:29;;;;;;;0.30;0.30;;;9.70;99.90;10.30;99004.00;;;;5085763;28;20186;-68
2023/01/08 19:51:44;;;;;;;0.40;0.40;;;9.70;99.90;10.20;99058.00;;;;5069358;28;20185;-68
2023/01/08 19:54:42;;;;;;;0.40;0.40;;;9.60;99.90;10.10;99048.00;;;;5017849;28;20193;-68
2023/01/08 20:01:26;;;;;;;0.30;0.30;;;9.50;99.90;10.00;99048.00;;;;5019231;28;20203;-68
2023/01/08 20:04:34;;;;;;;0.40;0.40;;;9.50;99.90;10.20;99040.00;;;;4996981;28;20262;-68
2023/01/08 20:07:56;;;;;;;0.30;0.30;;;9.50;99.90;10.00;99037.00;;;;5001454;28;20209;-68
2023/01/08 20:14:32;;;;;;;0.30;0.30;;;9.50;99.90;10.20;99030.00;;;;4922099;29;20212;-68
2023/01/08 20:17:23;;;;;;;0.30;0.30;;;9.60;99.90;10.80;99017.00;;;;4938002;29;20669;-68
2023/01/08 20:20:19;;;;;;;0.30;0.30;;;9.70;99.90;10.30;99031.00;;;;4947080;28;20314;-68
2023/01/08 20:23:40;;;;;;;0.50;0.50;;;9.70;99.90;10.60;99032.00;;;;4918975;29;20202;-68
2023/01/08 20:27:04;;;;;;;2.30;2.20;;;9.70;99.90;10.40;99035.00;;;;4994144;28;20254;-68
2023/01/08 20:29:57;;;;;;;0.90;0.90;;;9.70;99.90;10.10;99037.00;;;;5088291;28;20265;-68
2023/01/08 20:33:16;;;;;;;0.30;0.30;;;9.70;99.90;10.10;99037.00;;;;5084849;28;20220;-68
2023/01/08 20:36:29;;;;;;;0.40;0.40;;;9.70;99.90;10.90;99052.00;;;;5065359;28;20209;-68
2023/01/08 20:39:19;;;;;;;0.33;0.33;;;9.70;99.90;11.10;99044.00;;;;5076606;28;20660;-68
2023/01/08 20:42:08;;;;;;;0.30;0.30;;;10.00;99.90;11.00;99042.00;;;;5065649;28;20263;-68
2023/01/08 20:45:41;;;;;;;0.40;0.40;;;10.00;99.90;10.40;99048.00;;;;5083585;28;20198;-68
2023/01/08 20:48:34;;;;;;;1.07;0.77;;;9.80;99.90;10.20;99044.00;;;;5052572;28;20208;-68
2023/01/08 20:51:34;;;;;;;0.67;0.63;;;9.70;99.90;9.50;99055.00;;;;5073977;28;20188;-68
2023/01/08 20:54:27;;;;;;;0.80;0.63;;;9.40;99.90;9.60;99022.00;;;;5069714;28;20278;-68
2023/01/08 20:57:39;;;;;;;1.53;0.67;;;9.30;99.90;9.00;99062.00;;;;5103612;28;20176;-68
2023/01/08 21:00:12;;;;;;;0.20;0.20;;;9.00;99.90;8.70;99076.00;;;;5073110;28;20193;-68
2023/01/08 21:03:12;;;;;;;0.60;0.60;;;8.70;99.90;8.50;99073.00;;;;5089599;28;20194;-68
2023/01/08 21:06:04;;;;;;;0.30;0.30;;;8.50;99.90;8.80;99044.00;;;;5089407;28;20201;-68
2023/01/08 21:08:50;;;;;;;0.77;0.77;;;8.40;99.90;8.70;99087.00;;;;5072981;28;20190;-68
2023/01/08 21:11:23;;;;;;;0.30;0.30;;;8.40;99.90;9.30;98940.00;;;;5103929;28;20239;-67
2023/01/08 21:13:50;;;;;;;0.33;0.33;;;8.50;99.90;9.30;99047.00;;;;5072984;28;20712;-68